x

9410230 - La Jolla, Ca (ljac1) Weather Station

5:30 - Sat 31st Jan 2015 All times are PST. -8 hours from GMT.

  • Wind
    6mph, 7mph gusts
  • Sea Temp 61°f
  • Ar Temp 58°f
  • Sea Pressure 1010.7mb
  • 9410230 - La Jolla, Ca
  • 9410230 - La Jolla, Ca

More Historic Weather Station data

Upgrade to MSW Pro to gain access to the past 30 days of data for over 8000 Wavebouys and Weather Stations around the globe.

Join Pro

Comparision Forecast

View Surf forecast
   
Sáb 01/31 5:30 6 7 mph 1010.7mb 61f 58f
5:24 6 7 mph 1010.6mb 61f 58f
5:18 6 7 mph 1010.5mb 61f 58f
5:12 5 6 mph 1010.5mb 61f 59f
5:06 6
mph
1010.5mb 61f 58f
5:00 5 6 mph 1010.5mb 61f 59f
4:54 5 6 mph 1010.5mb 61f 59f
4:48 5 7 mph 1010.6mb 61f 59f
4:42 6 7 mph 1010.6mb 61f 59f
4:36 6 7 mph 1010.6mb 61f 59f
4:30 5 6 mph 1010.6mb 61f 59f
4:24 5 7 mph 1010.6mb 61f 59f
4:18 5 7 mph 1010.5mb 61f 59f
4:12 6 7 mph 1010.6mb 61f 59f
4:06 6 7 mph 1010.6mb 61f 59f
4:00 2 3 mph 1010.6mb 61f 59f
3:54  -  1 mph 1010.6mb 61f 59f
3:48  -  3 mph 1010.6mb 61f 60f
3:42 2 6 mph 1010.6mb 62f 60f
3:36 6 7 mph 1010.7mb 62f 60f
3:30 5 6 mph 1010.7mb 62f 60f
3:24 3 5 mph 1010.8mb 62f 60f
3:18 1 7 mph 1010.8mb 62f 60f
3:12 3 9 mph 1010.9mb 62f 60f
3:06 3 7 mph 1010.9mb 62f 60f
3:00 7 9 mph 1011mb 62f 59f
2:54 7 8 mph 1011mb 62f 59f
2:48 6 8 mph 1011mb 62f 59f
2:42 5 7 mph 1011.1mb 62f 59f
2:36 5 8 mph 1011mb 62f 59f
2:30 7 8 mph 1011.1mb 62f 59f
2:24 5 6 mph 1011.1mb 62f 60f
2:18 5 6 mph 1011.2mb 62f 60f
2:12 5 6 mph 1011.2mb 62f 60f
2:06 6 7 mph 1011.2mb 62f 60f
2:00 5 6 mph 1011.2mb 62f 60f
1:54 3 5 mph 1011.3mb 62f 60f
1:48 5 7 mph 1011.3mb 62f 60f
1:42 6 8 mph 1011.4mb 62f 59f
1:36 6 8 mph 1011.4mb 62f 60f
1:30 7 8 mph 1011.4mb 62f 60f
1:24 6 8 mph 1011.5mb 62f 60f
1:18 6 8 mph 1011.6mb 62f 59f
1:12 6 7 mph 1011.6mb 62f 59f
1:06 5 6 mph 1011.7mb 62f 59f
1:00 5 6 mph 1011.8mb 62f 59f
12:54 3 5 mph 1011.8mb 62f 59f
12:48 3 6 mph 1011.8mb 62f 59f
12:42 3 5 mph 1011.8mb 62f 60f
12:36 5 7 mph 1011.8mb 62f 60f
12:30 6 8 mph 1011.8mb 62f 60f
12:24 6 8 mph 1011.8mb 62f 60f
12:18 6
mph
1011.9mb 62f 60f
12:12 5 6 mph 1011.9mb 62f 60f
12:06 5 6 mph 1011.9mb 62f 60f
12:00 5 6 mph 1012mb 62f 60f
Sex 01/30 11:54 5 6 mph 1012mb 62f 60f
11:48 5 6 mph 1012.1mb 62f 60f
11:42 5 6 mph 1012.1mb 62f 60f
11:36 5 6 mph 1012.1mb 62f 60f
11:30 3 5 mph 1012.1mb 62f 60f
11:24 3 5 mph 1012.1mb 62f 60f
11:18 3 5 mph 1012.1mb 62f 60f
11:12 2 3 mph 1012.1mb 62f 60f
11:06 2 3 mph 1012.2mb 62f 60f
11:00 2 5 mph 1012.2mb 62f 60f
10:54 2 5 mph 1012.2mb 62f 60f
10:48 3
mph
1012.2mb 62f 60f
10:42 3
mph
1012.3mb 62f 61f
10:36 3
mph
1012.3mb 62f 61f
10:30 3 5 mph 1012.3mb 62f 61f
10:24 3 5 mph 1012.3mb 62f 61f
10:18 3 5 mph 1012.4mb 62f 61f
10:12 3 5 mph 1012.4mb 62f 61f
10:06 3 6 mph 1012.4mb 62f 61f
10:00 5 6 mph 1012.4mb 62f 61f
9:54 5 7 mph 1012.4mb 62f 61f
9:48 6 7 mph 1012.3mb 62f 61f
9:42 5 6 mph 1012.4mb 62f 60f
9:36 3 5 mph 1012.4mb 62f 60f
9:30 3 5 mph 1012.3mb 62f 60f
9:24 3 5 mph 1012.3mb 62f 60f
9:18 3
mph
1012.4mb 62f 61f
9:12 2 5 mph 1012.4mb 62f 61f
9:06 2 5 mph 1012.3mb 62f 61f
9:00 5 7 mph 1012.2mb 62f 60f
8:54 2 3 mph 1012.2mb 62f 60f
8:48 2 6 mph 1012.1mb 62f 60f
8:42 5 6 mph 1012mb 62f 60f
8:36 2 3 mph 1012mb 62f 60f
8:30 2
mph
1012mb 62f 60f
8:24 2 3 mph 1012.1mb 62f 60f
8:18 2 5 mph 1012mb 62f 61f
8:12 3 5 mph 1012mb 62f 61f
8:06 3
mph
1012mb 62f 61f
8:00 2 3 mph 1012mb 62f 61f
7:54 3
mph
1012mb 62f 61f
7:48  -  3 mph 1012mb 62f 61f
7:42 2 3 mph 1012mb 62f 60f
7:36 3 5 mph 1011.9mb 62f 60f
7:30 2 3 mph 1011.9mb 62f 60f
7:24  -  1 mph 1012mb 62f 60f
7:18 1 2 mph 1012mb 62f -
7:12 2 3 mph 1012mb 62f -
7:06 2 3 mph 1011.9mb 62f -
7:00 2 3 mph 1011.9mb 62f 60f
6:54 2
mph
1011.8mb 62f 61f
6:48  -  1 mph 1011.9mb 62f 60f
6:42  -  mph 1011.9mb 62f 61f
6:36  -  1 mph 1011.9mb 62f 61f
6:30  -  1 mph 1011.8mb 62f 61f
6:24  -  1 mph 1011.8mb 62f 61f
6:18 1
mph
1011.8mb 62f 61f
6:12  -  1 mph 1011.8mb 62f 61f
6:06  -  mph 1011.8mb 62f 61f
6:00  -  1 mph 1011.8mb 62f 61f
5:54 1 2 mph 1011.7mb 62f 61f
5:48  -  1 mph 1011.6mb 62f 61f
5:42  -  mph 1011.5mb 62f 61f
5:36  -  1 mph 1011.5mb 62f 61f
5:30  -  1 mph 1011.4mb 62f 61f
5:24  -  mph 1011.4mb 62f 62f
5:18  -  1 mph 1011.3mb 62f 62f
5:12  -  1 mph 1011.3mb 62f 62f
5:06  -  2 mph 1011.3mb 62f 62f
5:00 1
mph
1011.4mb 62f 62f
4:54  -  mph 1011.4mb 62f 62f
4:48  -  1 mph 1011.4mb 62f 62f
4:42  -  1 mph 1011.4mb 62f 62f
4:36  -  mph 1011.3mb 62f 62f
4:30  -  1 mph 1011.4mb 62f 62f
4:24  -  1 mph 1011.4mb 62f 62f
4:18 1 2 mph 1011.4mb 62f 62f
4:12 2 3 mph 1011.4mb 62f 62f
4:06 3
mph
1011.5mb 62f 61f
4:00 3 5 mph 1011.5mb 62f 61f
3:54 3 5 mph 1011.4mb 62f 61f
3:48 5
mph
1011.4mb 62f 61f
3:42 5 6 mph 1011.5mb 62f 61f
3:36 5 6 mph 1011.5mb 62f 61f
3:30 6
mph
1011.5mb 62f 61f
3:24 5 6 mph 1011.5mb 62f 61f
3:18 6
mph
1011.5mb 62f 62f
3:12 5
mph
1011.5mb 62f 61f
3:06 5 6 mph 1011.5mb 62f 61f
3:00 6
mph
1011.5mb 62f 61f
2:54 5 6 mph 1011.5mb 62f 62f
2:48 5 6 mph 1011.5mb 62f 62f
2:42 6 7 mph 1011.5mb 62f 62f
2:36 7
mph
1011.5mb 62f 62f
2:30 2
mph
1011.5mb 62f 63f
2:24 1 2 mph 1011.4mb 62f 63f
2:18 2
mph
1011.4mb 62f 62f
2:12 2
mph
1011.4mb 62f 63f
2:06  -  mph 1011.4mb 62f 63f
2:00  -  1 mph 1011.4mb 62f 62f
1:54 1
mph
1011.4mb 62f 62f
1:48 1 2 mph 1011.5mb 62f 62f
1:42 1 2 mph 1011.5mb 62f 62f
1:36 2
mph
1011.6mb 62f 62f
1:30 2
mph
1011.7mb 62f 62f
1:24 2
mph
1011.7mb 62f 62f
1:18 1 2 mph 1011.8mb 62f 62f
1:12 1 2 mph 1011.8mb 62f 62f
1:06 1 2 mph 1011.9mb 62f 62f
1:00 1 2 mph 1011.9mb 62f 62f
12:54 1 2 mph 1012mb 62f 62f
12:48 2 3 mph 1012.1mb 62f 62f
12:42 2 3 mph 1012.3mb 62f 62f
12:36 2
mph
1012.4mb 62f 62f
12:30 2 3 mph 1012.5mb 62f 62f
12:24 1 2 mph 1012.6mb 62f 62f
12:18  -  1 mph 1012.7mb 62f 62f
12:12  -  1 mph 1012.7mb 62f 62f
12:06 1 2 mph 1012.9mb 62f 62f
12:00  -  1 mph 1012.9mb 62f 62f
11:54  -  1 mph 1013.1mb 62f 62f
11:48 1 2 mph 1013.2mb 62f 62f
11:42 2 3 mph 1013.3mb 62f 62f
11:36 3
mph
1013.4mb 62f 62f
11:30 2 5 mph 1013.5mb 62f 62f
11:24 3 5 mph 1013.6mb 62f 61f
11:18 3 5 mph 1013.7mb 62f 62f
11:12 3 5 mph 1013.7mb 62f 62f
11:06 2 3 mph 1013.8mb 62f 61f
11:00 2
mph
1013.8mb 62f 61f
10:54 2
mph
1013.9mb 62f 61f
10:48 2
mph
1014mb 62f 61f
10:42 1
mph
1014mb 62f 61f
10:36 1 2 mph 1014mb 62f 61f
10:30 2
mph
1014.1mb 62f 62f
10:24  -  1 mph 1014.1mb 62f 62f
10:18  -  mph 1014.1mb 62f 62f
10:12  -  1 mph 1014.1mb 62f 62f
10:06 2 3 mph 1014.2mb 62f 61f
10:00 2 3 mph 1014.2mb 62f 61f
9:54 2
mph
1014.1mb 62f 61f
9:48 2 3 mph 1014.1mb 62f 62f
9:42 2 3 mph 1014.1mb 62f 62f
9:36 2 3 mph 1014.1mb 62f 62f
9:30 3
mph
1014mb 62f 62f
9:24 2 3 mph 1014mb 62f 62f
9:18 2
mph
1014mb 62f 62f
9:12 2
mph
1013.9mb 62f 62f
9:06 2 3 mph 1013.9mb 62f 62f
9:00 2 3 mph 1013.8mb 62f 62f
8:54 2 3 mph 1013.8mb 62f 61f
8:48 3
mph
1013.8mb 62f 61f
8:42 3
mph
1013.8mb 62f 62f
8:36 2 3 mph 1013.7mb 62f 62f
8:30 2
mph
1013.7mb 62f 62f
8:24 1
mph
1013.6mb 62f 62f
8:18  -  mph 1013.6mb 62f 62f
8:12  -  1 mph 1013.6mb 62f 62f
8:06 1 2 mph 1013.5mb 62f 62f
8:00 2
mph
1013.4mb 62f 61f
7:54 2
mph
1013.4mb 62f 62f
7:48 1 2 mph 1013.4mb 62f 61f
7:42  -  1 mph 1013.5mb 62f 62f
7:36 2
mph
1013.4mb 62f 61f
7:30  -  1 mph 1013.4mb 62f 61f
7:24 1
mph
1013.3mb 62f 61f
7:18 1 2 mph 1013.3mb 62f 61f
7:12 1 2 mph 1013.3mb 62f 61f
7:06  -  2 mph 1013.3mb 62f 61f
7:00  -  2 mph 1013.3mb 62f 61f
6:54  -  mph 1013.3mb 62f 61f
6:48  -  1 mph 1013.3mb 62f 61f
6:42 1 2 mph 1013.3mb 62f 61f
6:36 2
mph
1013.4mb 62f 61f
6:30  -  2 mph 1013.3mb 62f 61f
6:24 2 5 mph 1013.3mb 62f 61f
6:18 3
mph
1013.3mb 62f 61f
6:12 2
mph
1013.2mb 62f 61f
6:06  -  1 mph 1013.2mb 62f 61f
6:00  -  1 mph 1013.2mb 62f 61f
5:54  -  2 mph 1013.2mb 62f 61f
5:48 1
mph
1013.2mb 62f 61f
5:42 1
mph
1013.2mb 62f 61f
5:36  -  1 mph 1013.1mb 62f 61f
5:30 1
mph
1013.1mb 62f 62f
5:24  -  2 mph 1013.1mb 62f 61f
5:18 1 2 mph 1013mb 62f 61f
5:12 2 3 mph 1013mb 62f 61f
5:06 2
mph
1013mb 62f 61f
5:00 2 3 mph 1013.1mb 62f 61f
4:54 2
mph
1013mb 62f 61f
4:48  -  mph 1013.1mb 62f 61f
4:42  -  1 mph 1013.1mb 62f 61f
4:36 1
mph
1013.1mb 62f 61f
4:30  -  1 mph 1013.2mb 62f 61f
4:24 1
mph
1013.2mb 62f 61f
4:18  -  1 mph 1013.1mb 62f 61f
4:12 1 2 mph 1013.1mb 62f 61f
4:06 2
mph
1013.2mb 62f 61f
4:00 2
mph
1013.2mb 62f 61f
3:54  -  1 mph 1013.3mb 62f 61f
3:48  -  mph 1013.4mb 62f 61f
3:42  -  2 mph 1013.5mb 62f 61f
3:36 2
mph
1013.6mb 62f 61f
3:30 2
mph
1013.6mb 62f 61f
3:24 1
mph
1013.6mb 62f 61f
3:18 1 2 mph 1013.6mb 62f 61f
3:12 2 3 mph 1013.6mb 62f 61f
3:06 2 3 mph 1013.6mb 62f 62f
3:00  -  2 mph 1013.6mb 62f 62f
2:54 2 3 mph 1013.7mb 62f 62f
2:48 2 3 mph 1013.9mb 62f 62f
2:42 3 5 mph 1014mb 62f 62f
2:36 5
mph
1014.2mb 62f 62f
2:30 5
mph
1014.2mb 62f 62f
2:24 5 6 mph 1014.2mb 62f 62f
2:18 5 6 mph 1014.3mb 62f 62f
2:12 6 7 mph 1014.3mb 62f 62f
2:06 5
mph
1014.3mb 62f 62f
2:00 5 6 mph 1014.4mb 62f 62f
1:54 5 6 mph 1014.5mb 62f 62f
1:48 5
mph
1014.5mb 62f 62f
1:42 2 3 mph 1014.7mb 62f 62f
1:36 1 6 mph 1014.7mb 62f 62f
1:30 6 8 mph 1014.8mb 62f 62f
1:24 7 9 mph 1014.8mb 62f 62f
1:18 6 8 mph 1014.9mb 62f 62f
1:12 2 3 mph 1014.9mb 62f 62f
1:06  -  2 mph 1014.8mb 62f 62f
1:00 2
mph
1014.9mb 62f 62f
12:54 2 3 mph 1015mb 62f 62f
12:48 1 3 mph 1015mb 62f 62f
12:42 3
mph
1015.1mb 62f 62f
12:36 3 5 mph 1015.1mb 62f 62f
12:30 3
mph
1015mb 62f 62f
12:24 1
mph
1015.1mb 62f 62f
12:18 1 2 mph 1015.2mb 62f 62f
12:12 2 3 mph 1015.3mb 62f 62f
12:06 3 5 mph 1015.5mb 62f 62f
12:00 2
mph
1015.6mb 62f 62f
Qui 01/29 11:54  -  mph 1015.6mb 62f 62f
11:48  -  2 mph 1015.6mb 62f 62f
11:42  -  6 mph 1015.7mb 62f 62f
11:36 6 7 mph 1015.8mb 62f 62f
11:30 5 6 mph 1015.7mb 62f 62f
11:24 5 6 mph 1015.7mb 62f 62f
11:18 2
mph
1015.7mb 62f 62f
11:12  -  1 mph 1015.8mb 62f 62f
11:06 1 2 mph 1015.8mb 62f 63f
11:00  -  1 mph 1015.8mb 62f 63f
10:54 1 5 mph 1015.9mb 62f 63f
10:48 5 7 mph 1016mb 62f -
10:42 5 10 mph 1016mb 62f -
10:36 9 10 mph 1016mb 62f -
10:30 2 6 mph 1015.9mb 62f 63f
10:24 6 8 mph 1015.8mb 62f 63f
10:18 5 7 mph 1016mb 62f 63f
10:12 6 9 mph 1016.1mb 62f 63f
10:06 8 9 mph 1016mb 62f 63f
10:00 2 8 mph 1016.1mb 62f 63f
9:54 6 10 mph 1016.1mb 62f 63f
9:48 10 11 mph 1016.1mb 62f 63f
9:42 8 11 mph 1016.1mb 62f 63f
9:36 9 11 mph 1016.1mb 62f 63f
9:30 8 11 mph 1016.3mb 62f 63f
9:24 9 13 mph 1016.3mb 62f 63f
9:18 7 13 mph 1016.4mb 62f 63f
9:12 9 13 mph 1016.5mb 62f 63f
9:06 5 6 mph 1016.5mb 62f 63f
9:00 2 5 mph 1016.5mb 62f 63f
8:54 3 5 mph 1016.5mb 62f 63f
8:48 2
mph
1016.6mb 62f 64f
8:42 1 2 mph 1016.6mb 62f 64f
8:36 1 6 mph 1016.6mb 62f 64f
8:30 5 6 mph 1016.6mb 62f 64f
8:24 6 8 mph 1016.7mb 62f 64f
8:18 5 11 mph 1016.6mb 62f 63f
8:12 10 11 mph 1016.7mb 62f 63f
8:06 6 8 mph 1016.6mb 62f 63f
8:00 6 7 mph 1016.6mb 62f 62f
7:54 7 8 mph 1016.6mb 62f 63f
7:48 6 8 mph 1016.6mb 62f 63f
7:42 2 3 mph 1016.6mb 62f 64f
7:36 5 7 mph 1016.6mb 62f 64f
7:30 6
mph
1016.6mb 62f 64f
7:24 2 7 mph 1016.5mb 62f 64f
7:18  -  3 mph 1016.4mb 62f 64f
7:12 3 5 mph 1016.4mb 62f 64f
7:06 5 7 mph 1016.5mb 62f 64f
7:00 6 10 mph 1016.6mb 62f 64f
6:54 8 10 mph 1016.6mb 62f 65f
6:48 7 9 mph 1016.5mb 62f 64f
6:42 7 9 mph 1016.5mb 62f 63f
6:36 1 2 mph 1016.5mb 62f 63f
6:30 2
mph
1016.4mb 62f 63f
6:24 2
mph
1016.5mb 62f 63f
6:18 1 2 mph 1016.5mb 62f 63f
6:12 1 3 mph 1016.5mb 62f 62f
6:06 3 5 mph 1016.5mb 62f 63f
6:00 3 5 mph 1016.4mb 62f 63f
5:54 3 5 mph 1016.4mb 62f 63f
5:48 6 7 mph 1016.4mb 62f 63f
5:42 5 6 mph 1016.3mb 62f 63f
5:36 3 7 mph 1016.1mb 62f 63f
5:30 7
mph
1015.8mb 62f 63f
5:24 3 5 mph 1015.9mb 62f 63f
5:18 3 5 mph 1015.8mb 62f 63f
5:12 2 3 mph 1015.6mb 62f 64f
5:06 2
mph
1015.6mb 62f 63f
5:00 2
mph
1015.6mb 62f 64f
4:54 2
mph
1015.7mb 62f 64f
4:48  -  1 mph 1015.6mb 62f 63f
4:42  -  1 mph 1015.7mb 62f 64f
4:36 1 3 mph 1015.7mb 62f 64f
4:30 2 3 mph 1015.7mb 62f 64f
4:24  -  mph 1015.7mb 62f 64f
4:18  -  2 mph 1015.7mb 62f 64f
4:12 2 3 mph 1015.8mb 62f 64f
4:06 2 6 mph 1015.9mb 62f 64f
4:00 5 6 mph 1015.9mb 62f 64f
3:54 5 6 mph 1015.9mb 62f 64f
3:48 2 3 mph 1016mb 62f 64f
3:42 5 7 mph 1016mb 62f 64f
3:36 5 6 mph 1016.1mb 62f 64f
3:30 2 3 mph 1016.2mb 62f 64f
3:24 3 5 mph 1016.1mb 62f 64f
3:18 3 7 mph 1016.2mb 62f 64f
3:12 2 9 mph 1016.3mb 62f 65f
3:06 7 11 mph 1016.3mb 62f 64f
3:00 10 13 mph 1016.3mb 62f 65f
2:54 13 15 mph 1016.3mb 62f 65f
2:48 13 14 mph 1016.3mb 62f 65f
2:42 11 15 mph 1016.1mb 62f 65f
2:36 14 15 mph 1015.9mb 62f 65f
2:30 13 14 mph 1015.8mb 62f 66f
2:24 8 10 mph 1015.8mb 62f 66f
2:18 2 5 mph 1015.8mb 62f 66f
2:12 2 3 mph 1015.8mb 62f 66f
2:06  -  5 mph 1015.9mb 62f 66f
2:00 3 6 mph 1015.8mb 62f 65f
1:54 6 9 mph 1015.8mb 62f 65f
1:48 8
mph
1015.7mb 62f 65f
1:42 5 8 mph 1015.9mb 62f 65f
1:36 7 8 mph 1015.9mb 62f 66f
1:30 2 3 mph 1015.8mb 62f 67f
1:24 2
mph
1015.9mb 62f 67f
1:18  -  mph 1015.9mb 62f 68f
1:12  -  3 mph 1015.9mb 62f 68f
1:06  -  2 mph 1015.9mb 62f 67f
1:00 2 5 mph 1016mb 62f 67f
12:54 5 7 mph 1016.1mb 62f 67f
12:48 7
mph
1016.2mb 62f 67f
12:42 3
mph
1016.3mb 62f 69f
12:36 1 2 mph 1016.4mb 62f 70f
12:30  -  1 mph 1016.5mb 62f 71f
12:24  -  1 mph 1016.6mb 62f 71f
12:18  -  2 mph 1016.6mb 62f 69f
12:12 2 3 mph 1016.7mb 62f 68f
12:06 1
mph
1016.8mb 62f 67f
12:00 1
mph
1017mb 62f 66f
11:54  -  2 mph 1017.1mb 62f 65f
11:48 2
mph
1017.3mb 62f 64f
11:42 2
mph
1017.4mb 62f 64f
11:36 2
mph
1017.4mb 62f 64f
11:30  -  1 mph 1017.6mb 62f 65f
11:24  -  mph 1017.8mb 62f 65f
11:18  -  1 mph 1017.9mb 62f 65f
11:12  -  1 mph 1018mb 62f 65f
11:06  -  2 mph 1018mb 62f 65f
11:00  -  1 mph 1018.1mb 62f 64f
10:54  -  mph 1018.1mb 62f 65f
10:48  -  1 mph 1018.1mb 62f 65f
10:30  -  1 mph 1018.3mb 62f 66f
10:24  -  3 mph 1018.3mb 62f 65f
10:18 1 5 mph 1018.3mb 62f 65f
10:12 3 6 mph 1018.3mb 62f 65f
10:06 2 3 mph 1018.2mb 62f 66f
10:00  -  1 mph 1018.2mb 62f 67f
9:54 1 3 mph 1018.2mb 62f 66f
9:48 2
mph
1018.2mb 62f 66f
9:42  -  1 mph 1018.1mb 62f 68f
9:36 1 2 mph 1018mb 62f 67f
9:30 2
mph
1018mb 62f 67f
9:24 2
mph
1018mb 62f 67f
9:18 2 5 mph 1017.9mb 62f 67f
9:12 3
mph
1017.8mb 62f 66f
9:06 2 3 mph 1017.8mb 62f 66f
9:00 2 5 mph 1017.8mb 62f 66f
8:54  -  8 mph 1017.6mb 62f 66f
8:48 7 9 mph 1017.4mb 62f 66f
8:42 7 9 mph 1017.4mb 62f 66f
8:36 6 9 mph 1017.3mb 62f 66f
8:30 1 3 mph 1017.3mb 62f 65f
8:24 3 6 mph 1017.3mb 62f 65f
8:18 3 7 mph 1017.3mb 62f 64f
8:12 6
mph
1017.3mb 62f 64f
8:06  -  2 mph 1017.3mb 62f 63f
8:00 2
mph
1017.3mb 62f 63f
7:54 2
mph
1017.2mb 62f 64f
7:48  -  2 mph 1017.2mb 62f 64f
7:00 1 2 mph 1016.9mb 62f 63f
6:54 2
mph
1016.9mb 62f 63f
6:48 1 2 mph 1016.9mb 62f 63f
6:42 1 3 mph 1016.8mb 62f 62f
6:36 2 3 mph 1016.7mb 62f 62f
6:30 2 5 mph 1016.6mb 62f 62f
6:24 3 5 mph 1016.7mb 62f 62f
6:18 2 3 mph 1016.6mb 62f 61f
6:12 2 3 mph 1016.5mb 62f 62f
6:06  -  1 mph 1016.4mb 62f 61f
6:00 1 2 mph 1016.3mb 62f 62f
5:54 2 3 mph 1016.4mb 62f 61f
5:48 3
mph
1016.4mb 62f 61f
5:42 3
mph
1016.4mb 62f 60f
5:36 1 3 mph 1016.2mb 62f 61f
5:30  -  3 mph 1016.2mb 62f 61f
5:24 3 6 mph 1016.2mb 62f 61f
5:18 2 5 mph 1016.3mb 62f 62f
5:12 5
mph
1016.2mb 62f 62f
5:06 2 6 mph 1016.1mb 62f 63f
5:00  -  1 mph 1016mb 62f 63f
4:54 1 2 mph 1016mb 62f 63f
4:48 2
mph
1015.9mb 62f 63f
4:42 2 3 mph 1015.9mb 62f 63f
4:36 1 5 mph 1016mb 62f 63f
4:30 5 6 mph 1016mb 62f 63f
4:24 5
mph
1016mb 62f 62f
4:18 5 6 mph 1016mb 62f 62f
4:12 1 7 mph 1015.9mb 62f 62f
4:06 3 6 mph 1015.9mb 62f 62f
4:00 3
mph
1015.8mb 62f 63f
3:54 2 5 mph 1016mb 62f 62f
3:48 2 3 mph 1016.1mb 62f 62f
3:42 2 6 mph 1016mb 62f 62f
3:36 3 5 mph 1015.8mb 62f 62f
3:30 6 7 mph 1016.2mb 62f 61f
3:24 3 5 mph 1016.1mb 62f 60f
3:18 1 3 mph 1016.1mb 62f 61f
3:12 2 3 mph 1016.2mb 62f 62f
3:06 2 3 mph 1016.4mb 62f 62f
3:00 3 6 mph 1016.5mb 62f 62f
2:54 6 7 mph 1016.6mb 62f 62f
2:48 6 7 mph 1016.5mb 62f 62f
2:42 2 3 mph 1016.6mb 62f 62f
2:36  -  3 mph 1016.7mb 62f 62f
2:30  -  3 mph 1016.8mb 62f 62f
2:24 1
mph
1016.9mb 62f 62f
2:18 2
mph
1016.9mb 62f 62f
2:12 1 2 mph 1016.9mb 62f 62f
2:06  -  1 mph 1017mb 62f 62f
2:00  -  1 mph 1017mb 62f 62f
1:54 1 2 mph 1017mb 62f 62f
1:48 1 2 mph 1017mb 62f 62f
1:42 2 5 mph 1017mb 62f 63f
1:36 3 6 mph 1017.1mb 62f 63f
1:30 5 6 mph 1017.1mb 62f 62f
1:24 5 6 mph 1017.1mb 62f 62f
1:18 5
mph
1017.2mb 62f 62f
1:12 2 3 mph 1017.2mb 62f 62f
1:06 2 3 mph 1017.3mb 62f 62f
1:00 3 5 mph 1017.4mb 62f 62f
12:54 3 5 mph 1017.4mb 62f 62f
12:48 3 5 mph 1017.4mb 62f 62f
12:42 2 5 mph 1017.4mb 62f 61f
12:36 3
mph
1017.5mb 62f 61f
12:30 2 3 mph 1017.5mb 62f 62f
12:24  -  2 mph 1017.5mb 62f 62f
12:18  -  2 mph 1017.5mb 62f 62f
12:12  -  1 mph 1017.6mb 62f 62f
12:06  -  1 mph 1017.6mb 62f 62f
12:00 1
mph
1017.6mb 62f 62f
Qua 01/28 11:54 1 2 mph 1017.8mb 62f 62f
11:48 1 2 mph 1018mb 62f 62f
11:42 2
mph
1018.2mb 62f 62f
11:36 2
mph
1018.3mb 62f 62f
11:30 1 2 mph 1018.4mb 62f 62f
11:24 2
mph
1018.5mb 62f 62f
11:18 1 2 mph 1018.6mb 62f 62f
11:12 2
mph
1018.6mb 62f 62f
11:06 2
mph
1018.6mb 62f 62f
11:00 2
mph
1018.7mb 62f 62f
10:54 1
mph
1018.7mb 62f 61f
10:48  -  1 mph 1018.8mb 62f 61f
10:42  -  1 mph 1018.8mb 62f 61f
10:36  -  3 mph 1018.7mb 62f 62f
10:30  -  1 mph 1018.7mb 62f 62f
10:24  -  1 mph 1018.7mb 62f 62f
10:18 2
mph
1018.6mb 62f 62f
10:12 1 2 mph 1018.5mb 62f 62f
10:06  -  3 mph 1018.6mb 62f 62f
10:00 2 3 mph 1018.7mb 62f 62f
9:54 2 3 mph 1018.7mb 62f 62f
9:48 1 2 mph 1018.5mb 62f 62f
9:42 2 3 mph 1018.6mb 62f 62f
9:36 2 3 mph 1018.6mb 62f 62f
9:30 1 2 mph 1018.5mb 62f 62f
9:24 1 2 mph 1018.6mb 62f 62f
9:18  -  1 mph 1018.6mb 62f 62f
9:12 1
mph
1018.6mb 62f 62f
9:06 2 5 mph 1018.5mb 62f 62f
9:00 3 5 mph 1018.6mb 62f 62f
8:54 3
mph
1018.7mb 62f 62f
8:48 2 3 mph 1018.8mb 62f 62f
8:42 2
mph
1018.7mb 62f 62f
8:36 1 2 mph 1018.8mb 62f 62f
8:30 2 3 mph 1018.8mb 62f 62f
8:24  -  1 mph 1018.7mb 62f 62f
8:18  -  1 mph 1018.7mb 62f 62f
8:12  -  mph 1018.7mb 62f 62f
8:06  -  3 mph 1018.6mb 62f 62f
8:00 3
mph
1018.4mb 62f 63f
7:54 3 5 mph 1018.4mb 62f 63f
7:48 5
mph
1018.4mb 62f 63f
7:42 5 6 mph 1018.6mb 62f 63f
7:36 6 8 mph 1018.7mb 62f 63f
7:30 5 6 mph 1018.7mb 62f 64f
7:24 3 5 mph 1018.7mb 62f 64f
7:18 2
mph
1018.6mb 62f 64f
7:12  -  2 mph 1018.6mb 62f 64f
7:06 2
mph
1018.6mb 62f 64f
7:00  -  1 mph 1018.5mb 62f 64f
6:54  -  mph 1018.6mb 62f 64f
6:48  -  mph 1018.5mb 62f 64f
6:42  -  1 mph 1018.5mb 62f 64f
6:36  -  2 mph 1018.4mb 62f 64f
6:30  -  1 mph 1018.4mb 62f 64f
6:24  -  mph 1018.4mb 62f 64f
6:18  -  2 mph 1018.3mb 62f 64f
6:12 2 3 mph 1018.3mb 62f 64f
6:06 2
mph
1018.2mb 62f 63f
6:00 1 3 mph 1018.2mb - -
5:54 2 3 mph 1018.2mb - -
5:48 2 3 mph 1018.2mb 62f 62f
5:42 1 2 mph 1018.3mb 62f 63f
5:36 2 3 mph 1018.2mb 62f 64f
5:30 2 3 mph 1018.2mb 62f 63f
5:24 3 6 mph 1018.1mb 62f 62f
5:18 5 6 mph 1018.2mb - 62f
5:12 3 5 mph 1018.3mb - 62f
5:06 2 3 mph 1018.5mb - 63f
5:00 2 3 mph 1018.6mb 62f 63f
4:54 1 2 mph 1018.7mb 62f 63f
4:48 2 3 mph 1018.7mb 62f 63f
4:42 3
mph
1018.6mb 62f 63f
4:36 2 3 mph 1018.5mb 62f 63f
4:30 1 2 mph 1018.5mb 62f 63f
4:24 2 3 mph 1018.3mb 62f 63f
4:18 3 5 mph 1018.1mb 62f 63f
4:12 3
mph
1018mb 62f 63f
4:06 2 3 mph 1018.1mb 62f 63f
4:00 3
mph
1018.1mb 62f 63f
3:54 3 5 mph 1018mb 62f 63f
3:48 3 5 mph 1018mb 62f 63f
3:42 3 6 mph 1018mb 62f 63f
3:36 5 7 mph 1018mb 62f 62f
3:30 6 7 mph 1018mb 62f 62f
3:24 6 7 mph 1018mb 62f 62f
3:18 6
mph
1018mb 62f 63f
3:12 6
mph
1018.1mb 62f 63f
3:06 6
mph
1018.2mb 62f 63f
3:00 6
mph
1018.3mb 62f 63f
2:54 5 6 mph 1018.4mb 62f 63f
2:48 5 6 mph 1018.3mb 62f 63f
2:42 3 5 mph 1018.3mb 62f 64f
2:36 3 5 mph 1018.3mb 62f 64f
2:30 2 3 mph 1018.4mb 62f 64f
2:24 2 3 mph 1018.4mb 62f 64f
2:18 1 3 mph 1018.4mb 62f 64f
2:12 2 3 mph 1018.4mb 62f 64f
2:06 2
mph
1018.3mb 62f 64f
2:00  -  mph 1018.3mb 62f -
1:54  -  mph 1018.3mb 62f -
1:48 3
mph
1018.2mb 62f 63f
1:42 2
mph
1018.2mb 62f 64f
1:36 2 3 mph 1018.2mb 62f 64f
1:30 3
mph
1018.1mb 62f 64f
1:24 2 3 mph 1018.1mb 62f 64f
1:18  -  mph - 62f 65f
1:12  -  mph - 62f 67f
1:06  -  mph - 62f 67f
1:00  -  mph 1018.3mb 62f 68f
12:54  -  mph 1018.2mb 62f 69f
12:48  -  mph 1018.3mb 62f 68f
12:42  -  1 mph 1018.3mb 62f 68f
12:36  -  1 mph 1018.4mb 62f 68f
12:30  -  1 mph 1018.5mb 62f 67f
12:24  -  2 mph 1018.6mb 62f 67f
12:18 1 2 mph 1018.7mb 62f 67f
12:12 1 2 mph 1018.7mb 62f 65f
12:06 2
mph
1018.8mb 62f 65f
12:00 1 2 mph 1018.8mb 62f 67f
11:54  -  1 mph 1018.9mb 62f 69f
11:48  -  mph 1018.9mb 62f 68f
11:42  -  mph 1019.1mb 62f 67f
11:36  -  1 mph 1019.3mb 62f 65f
11:30 1 2 mph 1019.4mb 62f 63f
11:24 1
mph
1019.5mb 62f 62f
11:18 2 3 mph 1019.7mb 62f 62f
11:12 2 3 mph 1019.7mb 62f 62f
11:06 3 5 mph 1019.8mb 62f 62f
11:00 5
mph
1019.8mb 62f 62f
10:54 5
mph
1019.8mb 62f 62f
10:48 5
mph
1019.9mb 62f 62f
10:42 3 5 mph 1020mb 62f 62f
10:36 5
mph
1020mb 62f 62f
10:30 3 5 mph 1020.1mb 62f 63f
10:24 3 5 mph 1020.2mb 62f 63f
10:18 2
mph
1020.2mb 62f 64f
10:12  -  1 mph 1020.2mb 62f 65f
10:06  -  1 mph 1020.2mb 62f 67f
10:00  -  mph 1020.2mb 62f 67f
9:54  -  mph 1020.1mb 62f 67f
9:48  -  1 mph 1020mb 62f 66f
9:42  -  3 mph 1019.9mb 62f 64f
9:36 2 3 mph 1019.9mb 62f 62f
9:30 2 3 mph 1019.9mb 62f 62f
9:24 2 3 mph 1019.9mb 62f 62f
9:18 3
mph
1019.9mb 62f 62f
9:12 3
mph
1020mb 62f 62f
9:06 3
mph
1020mb 62f 62f
9:00 1 2 mph 1020mb 62f 63f
8:54 2
mph
1020.1mb 62f 62f
8:48  -  mph 1020.2mb 62f 63f
8:42 1 3 mph 1020.2mb 62f 61f
8:36 2 5 mph 1020.2mb 62f 61f
8:30 3 5 mph 1020.3mb 62f 60f
8:24 3 5 mph 1020.4mb 62f 60f
8:18 3 5 mph 1020.5mb 62f 60f
8:12 3 5 mph 1020.4mb 62f 60f
8:06 5 6 mph 1020.4mb 62f 60f
8:00  -  mph - - 60f
7:54  -  mph - - 60f
7:48  -  3 mph 1020.2mb 62f 60f
7:42 2
mph
1020.2mb 62f 59f
7:36  -  2 mph 1020.2mb 62f 59f
7:30 1 2 mph 1020.1mb 62f 59f
7:24  -  3 mph 1020.1mb 62f 58f
7:18 3 5 mph 1020.1mb 62f 58f
7:12 2 3 mph 1020.1mb 62f 58f
7:06  -  3 mph 1020.1mb 62f 58f
7:00 3 6 mph 1020.1mb 62f 58f
6:54 6
mph
1020.1mb 62f 58f
6:48 5 6 mph 1020.2mb 62f 57f
6:42 3 6 mph 1020.2mb 62f 57f
6:36 2 3 mph 1020.2mb 62f 57f
6:30  -  1 mph 1020.3mb 62f 57f
6:24  -  mph 1020.2mb 62f 57f
6:18  -  1 mph 1020.2mb 62f 57f
6:12  -  mph 1020.1mb 62f 57f
6:06  -  mph 1020.2mb 62f 57f
6:00  -  mph 1020.2mb 62f 57f
5:54  -  mph 1020.2mb 62f 57f
5:48  -  1 mph 1020.2mb 62f 58f
5:42 1 2 mph 1020.3mb 62f 58f
5:36 3
mph
1020.4mb 62f 58f
5:30 1 2 mph 1020.4mb 62f 58f
5:24 1 5 mph 1020.4mb 62f 58f
5:18 3 5 mph 1020.4mb 62f 58f
5:12 6 7 mph 1020.5mb 62f 59f
5:06 6 7 mph 1020.4mb 62f 59f
5:00 5 6 mph 1020.3mb 62f 59f
4:54  -  1 mph 1020.3mb 62f 59f
4:48  -  1 mph 1020.3mb 62f 58f
4:42  -  1 mph 1020.2mb 62f 59f
4:36  -  2 mph 1020.2mb 62f 59f
4:30 2
mph
1020mb 62f 58f
4:24 2 3 mph 1019.9mb 62f 58f
4:18 2 3 mph 1019.9mb 62f 58f
4:12 2 3 mph 1019.9mb 62f 58f
4:06 2 3 mph 1019.8mb 62f 59f
4:00 2 3 mph 1019.7mb 62f 59f
3:54 3
mph
1019.6mb 62f 59f
3:48 3 5 mph 1019.6mb 62f 60f
3:42 2 3 mph 1019.6mb 62f 60f
3:36 2 3 mph 1019.6mb 62f 59f
3:30 2 3 mph 1019.7mb 62f 59f
3:24 1 5 mph 1019.7mb 62f 59f
3:18 3 7 mph 1019.8mb 62f 59f
3:12 2 5 mph 1019.9mb 62f 59f
3:06  -  3 mph 1020.1mb 62f 58f
3:00 1 2 mph 1020.2mb 62f 58f
2:54  -  1 mph 1020.2mb 62f 58f
2:48  -  3 mph 1020.3mb - -
2:42  -  3 mph 1020.5mb - -
2:36 3 5 mph 1020.7mb - -
2:30 3 5 mph 1020.8mb 62f 58f
2:24 3 5 mph 1021mb 62f 58f
2:18 2 3 mph 1021mb 62f 58f
2:12 1 2 mph 1021mb 62f 60f
2:06  -  2 mph 1021mb 62f 60f
2:00 2
mph
1021.1mb 62f 60f
1:54 1 2 mph 1021mb 62f 60f
1:48 1
mph
1021.1mb 62f 60f
1:42  -  1 mph 1021.1mb 62f 60f
1:36  -  1 mph 1021.1mb 62f 60f
1:30  -  1 mph 1021.2mb 62f 60f
1:24  -  2 mph 1021.3mb 62f 59f
1:18  -  1 mph 1021.4mb 62f 59f
1:12  -  2 mph 1021.5mb 62f 59f
1:06 1 3 mph 1021.5mb 62f 59f
1:00 2 3 mph 1021.5mb 62f 59f
12:54  -  1 mph 1021.6mb 62f 58f
12:48 2 3 mph 1021.6mb 62f 58f
12:42 3 6 mph 1021.5mb 62f 58f
12:36 5 6 mph 1021.4mb 62f 58f
12:30 6
mph
1021.4mb 62f 59f
12:24 2
mph
1021.4mb 62f 60f
12:18 2
mph
1021.3mb 62f 60f
12:12 2
mph
1021.2mb 62f 60f
12:06 2
mph
1021.4mb 62f 60f
12:00 2
mph
1021.4mb 62f 60f
Ter 01/27 11:54 2
mph
1021.3mb 62f 60f
11:48 1
mph
1021.3mb 62f 60f
11:42  -  1 mph 1021.2mb 62f 60f
11:36  -  1 mph 1021.2mb 62f 60f
11:30  -  1 mph 1021.2mb 62f 60f
11:24  -  1 mph 1021.2mb 62f 60f
11:18 1
mph
1021.1mb 62f 60f
11:12  -  1 mph 1021.1mb 62f 60f
11:06  -  2 mph 1021.2mb 62f 60f
11:00  -  1 mph 1021.1mb 62f 60f
10:54  -  2 mph 1021.2mb 62f 60f
10:48 2
mph
1021.2mb 62f 60f
10:42  -  3 mph 1021.2mb 62f 61f
10:36 3
mph
1021.2mb 62f 61f
10:30 3 5 mph 1021.4mb 62f 61f
10:24  -  3 mph 1021.4mb 62f 61f
10:18 2 3 mph 1021.4mb 62f 61f
10:12 2 3 mph 1021.5mb 62f 62f
10:06 2 3 mph 1021.5mb 62f 62f
10:00 3
mph
1021.6mb 62f 62f
9:54 3 5 mph 1021.6mb 62f 62f
9:48 5
mph
1021.6mb 62f 62f
9:42 5
mph
1021.5mb 62f 62f
9:36 5 6 mph 1021.4mb 62f 62f
9:30 5 6 mph 1021.4mb 62f 62f
9:24 5 6 mph 1021.5mb 62f 62f
9:18 5 6 mph 1021.6mb 62f 62f
9:12 6 7 mph 1021.6mb 63f 62f
9:06 6 7 mph 1021.6mb 63f 62f
9:00 5 7 mph 1021.7mb 63f 62f
8:54 5 6 mph 1021.8mb 63f 62f
8:48 6
mph
1021.8mb 63f 62f
8:42 6 8 mph 1021.8mb 63f 62f
8:36 6 8 mph 1021.8mb 63f 62f
8:30 6 9 mph 1021.8mb 62f 62f
8:24 8 9 mph 1021.7mb 63f 62f
8:18 7 8 mph 1021.7mb 63f 61f
8:12 6 7 mph 1021.8mb 63f 61f
8:06 6 7 mph 1021.9mb 63f 61f
8:00 6
mph
1021.8mb 63f 61f
7:54 3 5 mph 1021.9mb 63f 61f
7:48 3
mph
1021.9mb 63f 61f
7:42 2
mph
1021.9mb 63f 61f
7:36 2 3 mph 1021.8mb 63f 61f
7:30 3 5 mph 1021.7mb 63f 61f
7:24 3 5 mph 1021.6mb 63f 61f
7:18 5 6 mph 1021.5mb 63f 61f
7:12 5 6 mph 1021.6mb 62f 61f
7:06 6
mph
1021.6mb 62f 61f
7:00 5 6 mph 1021.6mb 62f 61f
6:54 3 5 mph 1021.8mb 62f 61f
6:48 5
mph
1021.7mb 62f 61f
6:42 3 5 mph 1021.7mb 62f 61f
6:36 3 5 mph 1021.6mb 62f 61f
6:30 3
mph
1021.5mb 62f 61f
6:24 3 5 mph 1021.5mb 62f 61f
6:18 5
mph
1021.4mb 62f 62f
6:12 5 6 mph 1021.4mb 62f 62f
6:06 6
mph
1021.2mb 62f 62f
6:00 6 7 mph 1021.2mb 62f 62f
5:54 6 7 mph 1021.2mb 62f 62f
5:48 7 8 mph 1021.2mb 62f 62f
5:42 7
mph
1021.1mb 62f 62f
5:36 7 8 mph 1021.1mb 62f 62f
5:30 6 7 mph 1021mb 62f 62f
5:24 6 8 mph 1020.9mb 62f 62f
5:18 7 8 mph 1021mb 62f 62f
5:12 7 8 mph 1020.9mb 62f 62f
5:06 6 7 mph 1020.8mb 62f 62f
5:00 6 7 mph 1020.8mb 62f 62f
4:54 6
mph
1020.9mb 62f 63f
4:48 5 7 mph 1020.9mb 62f 63f
4:42 6 7 mph 1020.8mb 62f 63f
4:36 6 7 mph 1020.9mb 62f 63f
4:30 6 7 mph 1021mb 62f 63f
4:24 7
mph
1021.1mb 62f 63f
4:18 7
mph
1021.2mb 62f 63f
4:12 7
mph
1021.2mb 62f 63f
4:06 6 7 mph 1021.3mb 62f 63f
4:00 7 8 mph 1021.3mb 62f 63f
3:54 6 7 mph 1021.3mb 62f 63f
3:48 7 8 mph 1021.3mb 62f 63f
3:42 7 8 mph 1021.3mb 62f 63f
3:36 7 8 mph 1021.2mb 62f 64f
3:30 7 8 mph 1021.3mb 62f 64f
3:24 6 8 mph 1021.3mb 62f 64f
3:18 8
mph
1021.3mb 63f 64f
3:12 7 8 mph 1021.3mb 62f 63f
3:06 7 8 mph 1021.3mb 62f 63f
3:00 6 8 mph 1021.3mb 62f 64f
2:54 7 8 mph 1021.2mb 62f 63f
2:48 6 7 mph 1021.2mb 62f 63f
2:42 7 8 mph 1021.2mb 62f 63f
2:36 6 7 mph 1021.1mb 62f 63f
2:30 6 7 mph 1021.1mb 63f 63f
2:24 7
mph
1021.1mb 62f 64f